Time;durP1;ratioP1;P1;durP2;ratioP2;P2;SDS_P1;SDS_P2;PMS_P1;PMS_P2;Temp;Humidity;BMP_temperature;BMP_pressure;BME280_temperature;BME280_humidity;BME280_pressure;Samples;Min_cycle;Max_cycle;Signal;HPM_P1;HPM_P2
2021/05/31 00:01:39;;;;;;;4.07;2.90;;;384.80;1740.80;;;;;;5094495;28;20039;-69
2021/05/31 00:04:04;;;;;;;3.78;3.30;;;384.70;1740.80;;;;;;5094542;28;20063;-69
2021/05/31 00:06:40;;;;;;;3.78;3.22;;;384.70;1740.80;;;;;;5094501;28;20043;-68
2021/05/31 00:09:06;;;;;;;4.22;3.22;;;384.70;1740.80;;;;;;5094497;28;20036;-68
2021/05/31 00:11:32;;;;;;;5.30;3.45;;;384.70;1740.80;;;;;;5094514;28;20039;-68
2021/05/31 00:13:58;;;;;;;4.30;3.28;;;384.60;1740.80;;;;;;5094292;28;20465;-68
2021/05/31 00:16:23;;;;;;;3.97;3.58;;;384.60;1740.80;;;;;;5094512;28;20031;-68
2021/05/31 00:18:49;;;;;;;3.67;3.30;;;384.60;1715.20;;;;;;5094356;28;20069;-68
2021/05/31 00:21:18;;;;;;;5.13;3.95;;;384.50;1740.80;;;;;;5094269;28;20031;-68
2021/05/31 00:23:44;;;;;;;4.22;3.40;;;384.50;1715.20;;;;;;5093937;28;20072;-68
2021/05/31 00:26:10;;;;;;;4.32;3.50;;;384.40;1715.20;;;;;;5094274;28;20103;-68
2021/05/31 00:28:36;;;;;;;4.28;3.70;;;384.40;1740.80;;;;;;5094187;28;20063;-68
2021/05/31 00:31:02;;;;;;;3.40;3.00;;;384.40;1740.80;;;;;;5094180;28;20496;-68
2021/05/31 00:33:28;;;;;;;4.22;3.75;;;384.30;1740.80;;;;;;5094203;28;20077;-68
2021/05/31 00:35:53;;;;;;;4.60;3.42;;;384.20;1740.80;;;;;;5094165;28;20107;-68
2021/05/31 00:38:19;;;;;;;4.07;3.78;;;384.20;1740.80;;;;;;5094092;28;20431;-68
2021/05/31 00:40:45;;;;;;;4.18;3.60;;;384.20;1740.80;;;;;;5094182;28;20470;-68
2021/05/31 00:43:10;;;;;;;4.57;3.70;;;384.20;1740.80;;;;;;5092154;28;20482;-68
2021/05/31 00:45:36;;;;;;;4.90;3.92;;;384.20;1766.40;;;;;;5094111;28;20039;-68
2021/05/31 00:48:02;;;;;;;5.32;4.65;;;384.20;1740.80;;;;;;5094069;28;20027;-67
2021/05/31 00:50:28;;;;;;;6.95;3.58;;;384.10;1766.40;;;;;;5109067;28;20047;-67
2021/05/31 00:52:54;;;;;;;6.00;3.83;;;384.10;1766.40;;;;;;5093858;28;20505;-68
2021/05/31 00:55:21;;;;;;;7.25;4.13;;;384.10;1766.40;;;;;;5093948;28;20024;-67
2021/05/31 00:57:46;;;;;;;7.53;4.07;;;384.10;1766.40;;;;;;5093610;28;20050;-67
2021/05/31 01:00:13;;;;;;;4.38;3.97;;;384.00;1766.40;;;;;;5093674;28;20024;-68
2021/05/31 01:02:39;;;;;;;6.40;3.85;;;384.00;1766.40;;;;;;5093673;28;20031;-68
2021/05/31 01:05:06;;;;;;;6.40;3.83;;;384.00;1766.40;;;;;;5093789;28;20099;-68
2021/05/31 01:07:43;;;;;;;4.70;3.95;;;384.00;1766.40;;;;;;5093655;28;20537;-68
2021/05/31 01:10:25;;;;;;;6.53;4.32;;;384.00;1766.40;;;;;;5093421;28;20032;-68
2021/05/31 01:13:08;;;;;;;6.20;3.88;;;359.30;1792.00;;;;;;5093388;28;20016;-68
2021/05/31 01:15:43;;;;;;;3.83;3.53;;;359.30;1792.00;;;;;;5093696;28;20028;-67
2021/05/31 01:18:26;;;;;;;4.68;4.05;;;359.30;1792.00;;;;;;5093661;28;20052;-68
2021/05/31 01:21:15;;;;;;;5.10;3.85;;;359.30;1792.00;;;;;;5096993;28;20028;-68
2021/05/31 01:23:45;;;;;;;5.55;3.83;;;359.20;1817.60;;;;;;5097416;28;20042;-68
2021/05/31 01:26:20;;;;;;;4.55;4.05;;;359.20;1817.60;;;;;;5097667;28;20032;-67
2021/05/31 01:29:05;;;;;;;4.20;3.50;;;359.20;1817.60;;;;;;5097232;28;20032;-68
2021/05/31 01:31:37;;;;;;;5.25;4.25;;;359.20;1817.60;;;;;;5097834;28;20024;-67
2021/05/31 01:34:07;;;;;;;4.57;3.85;;;359.20;1817.60;;;;;;5097372;28;20069;-68
2021/05/31 01:36:37;;;;;;;5.57;3.45;;;359.20;1817.60;;;;;;5097287;28;20108;-68
2021/05/31 01:39:04;;;;;;;6.82;3.75;;;359.20;1817.60;;;;;;5097155;28;20062;-67
2021/05/31 01:41:31;;;;;;;4.38;3.70;;;359.30;1817.60;;;;;;5097345;28;20024;-67
2021/05/31 01:43:58;;;;;;;3.75;3.45;;;359.30;1817.60;;;;;;5097248;28;20157;-68
2021/05/31 01:46:24;;;;;;;4.13;3.72;;;359.30;1817.60;;;;;;5097044;28;20462;-68
2021/05/31 01:48:52;;;;;;;3.92;3.22;;;359.20;1817.60;;;;;;5097448;28;20149;-67
2021/05/31 01:51:19;;;;;;;5.90;4.13;;;359.30;1817.60;;;;;;5097142;28;20039;-67
2021/05/31 01:53:46;;;;;;;3.30;3.00;;;359.30;1817.60;;;;;;5097166;28;20461;-67
2021/05/31 01:56:13;;;;;;;4.55;3.25;;;359.30;1843.20;;;;;;5097396;28;20458;-68
2021/05/31 01:58:39;;;;;;;4.28;3.47;;;384.00;1843.20;;;;;;5096777;28;20112;-67
2021/05/31 02:01:09;;;;;;;4.00;3.60;;;384.00;1843.20;;;;;;5096981;28;20024;-67
2021/05/31 02:03:34;;;;;;;5.38;3.92;;;384.00;1843.20;;;;;;5096936;28;20024;-68
2021/05/31 02:06:00;;;;;;;7.18;3.58;;;384.00;1843.20;;;;;;5096781;28;20020;-67
2021/05/31 02:08:26;;;;;;;4.75;3.78;;;384.00;1843.20;;;;;;5096709;28;20058;-67
2021/05/31 02:10:52;;;;;;;8.48;5.55;;;384.00;1843.20;;;;;;5096975;28;20087;-67
2021/05/31 02:13:18;;;;;;;11.15;8.02;;;384.00;1868.80;;;;;;5096653;28;20020;-67
2021/05/31 02:15:55;;;;;;;9.65;6.22;;;384.00;1868.80;;;;;;5097019;28;20027;-67
2021/05/31 02:18:29;;;;;;;3.78;3.33;;;384.00;1843.20;;;;;;5096756;28;20469;-68
2021/05/31 02:21:00;;;;;;;;;;;384.00;1868.80;;;;;;5097130;28;20374;-68
2021/05/31 02:23:27;;;;;;;3.95;2.90;;;384.00;1868.80;;;;;;5096348;28;20405;-67
2021/05/31 02:25:53;;;;;;;4.00;2.83;;;384.00;1868.80;;;;;;5096205;28;20496;-68
2021/05/31 02:28:19;;;;;;;3.67;2.70;;;384.00;1868.80;;;;;;5096225;28;20024;-68
2021/05/31 02:30:44;;;;;;;5.28;2.63;;;384.00;1868.80;;;;;;5095524;28;20032;-67
2021/05/31 02:33:10;;;;;;;3.67;2.47;;;384.00;1868.80;;;;;;5096061;28;20024;-68
2021/05/31 02:35:38;;;;;;;4.25;2.17;;;384.00;1868.80;;;;;;5096329;28;20035;-68
2021/05/31 02:38:05;;;;;;;2.47;2.20;;;384.10;1868.80;;;;;;5096274;28;20024;-69
2021/05/31 02:40:32;;;;;;;6.78;2.30;;;384.10;1868.80;;;;;;5096091;28;20503;-68
2021/05/31 02:43:01;;;;;;;3.25;2.65;;;384.10;1868.80;;;;;;5095892;28;20028;-68
2021/05/31 02:45:27;;;;;;;3.38;2.20;;;384.10;1868.80;;;;;;5096067;28;20031;-67
2021/05/31 02:47:55;;;;;;;8.20;2.58;;;384.10;1868.80;;;;;;5096063;28;20393;-68
2021/05/31 02:50:20;;;;;;;9.95;2.60;;;384.10;1868.80;;;;;;5095897;28;20032;-70
2021/05/31 02:52:47;;;;;;;5.97;2.42;;;384.10;1868.80;;;;;;5096151;28;20028;-71
2021/05/31 02:55:19;;;;;;;2.75;1.98;;;384.10;1843.20;;;;;;5094739;28;20024;-70
2021/05/31 02:57:46;;;;;;;4.82;2.35;;;384.10;1868.80;;;;;;5094454;28;20027;-67
2021/05/31 03:00:14;;;;;;;6.90;2.50;;;384.20;1843.20;;;;;;5095673;28;20413;-70
2021/05/31 03:02:40;;;;;;;2.92;2.30;;;384.20;1843.20;;;;;;5095685;28;20021;-71
2021/05/31 03:05:09;;;;;;;2.65;2.10;;;384.20;1843.20;;;;;;5095762;28;20420;-68
2021/05/31 03:07:35;;;;;;;2.65;2.20;;;384.20;1868.80;;;;;;5095514;28;20102;-68
2021/05/31 03:10:01;;;;;;;6.80;2.70;;;384.10;1868.80;;;;;;5095006;28;20527;-70
2021/05/31 03:12:26;;;;;;;13.13;3.60;;;384.20;1868.80;;;;;;5094589;28;20031;-68
2021/05/31 03:14:53;;;;;;;3.60;2.72;;;384.30;1868.80;;;;;;5095206;28;20059;-68
2021/05/31 03:17:19;;;;;;;18.08;2.85;;;384.20;1868.80;;;;;;5094810;28;20040;-68
2021/05/31 03:19:46;;;;;;;9.85;2.90;;;384.30;1868.80;;;;;;5092648;28;20036;-71
2021/05/31 03:22:12;;;;;;;4.45;2.40;;;384.30;1843.20;;;;;;5094556;28;20020;-68
2021/05/31 03:24:38;;;;;;;3.15;2.20;;;384.30;1868.80;;;;;;5094775;28;20055;-67
2021/05/31 03:27:04;;;;;;;8.10;2.13;;;384.30;1843.20;;;;;;5094960;28;20462;-70
2021/05/31 03:29:30;;;;;;;7.25;1.92;;;384.30;1843.20;;;;;;5094460;28;20111;-67
2021/05/31 03:31:56;;;;;;;5.88;2.35;;;384.30;1843.20;;;;;;5095196;28;20425;-71
2021/05/31 03:34:22;;;;;;;4.18;2.80;;;384.30;1843.20;;;;;;5094718;28;20059;-68
2021/05/31 03:36:48;;;;;;;6.10;3.13;;;384.30;1843.20;;;;;;5095625;28;20028;-68
2021/05/31 03:39:14;;;;;;;6.57;4.30;;;384.20;1843.20;;;;;;5095050;28;20031;-71
2021/05/31 03:41:39;;;;;;;6.18;3.88;;;384.30;1843.20;;;;;;5094829;28;20024;-68
2021/05/31 03:44:05;;;;;;;4.50;2.80;;;384.20;1843.20;;;;;;5094782;28;20030;-72
2021/05/31 03:46:31;;;;;;;2.50;2.20;;;384.30;1843.20;;;;;;5094845;28;20065;-71
2021/05/31 03:48:57;;;;;;;9.88;2.20;;;384.30;1843.20;;;;;;5094857;28;20028;-69
2021/05/31 03:51:23;;;;;;;2.75;1.88;;;384.30;1843.20;;;;;;5094680;28;20028;-71
2021/05/31 03:53:49;;;;;;;5.05;2.10;;;384.30;1843.20;;;;;;5094331;28;20032;-72
2021/05/31 03:56:15;;;;;;;2.50;2.30;;;384.30;1843.20;;;;;;5094888;28;20020;-68
2021/05/31 03:58:42;;;;;;;3.65;1.75;;;384.30;1843.20;;;;;;5094730;28;20020;-71
2021/05/31 04:01:09;;;;;;;3.22;1.90;;;384.30;1843.20;;;;;;5094256;28;20488;-68
2021/05/31 04:03:36;;;;;;;2.33;1.83;;;384.40;1843.20;;;;;;5094651;28;20077;-67
2021/05/31 04:06:16;;;;;;;4.25;1.95;;;384.40;1843.20;;;;;;5094648;28;20081;-70
2021/05/31 04:14:05;;;;;;;;;;;384.40;1843.20;;;;;;5094844;28;20027;-70
2021/05/31 04:16:31;;;;;;;2.47;1.85;;;384.40;1843.20;;;;;;5094188;28;19929;-67
2021/05/31 04:18:57;;;;;;;4.25;2.00;;;384.40;1843.20;;;;;;5094300;28;20386;-69
2021/05/31 04:21:23;;;;;;;4.00;1.73;;;384.40;1843.20;;;;;;5094071;28;20024;-70
2021/05/31 04:23:48;;;;;;;3.50;2.22;;;384.50;1843.20;;;;;;5092078;28;20052;-70
2021/05/31 04:26:14;;;;;;;2.85;2.00;;;384.50;1843.20;;;;;;5093847;28;20359;-69
2021/05/31 04:28:40;;;;;;;3.78;2.05;;;384.50;1843.20;;;;;;5092556;28;20487;-67
2021/05/31 04:31:06;;;;;;;4.90;2.25;;;384.50;1843.20;;;;;;5093989;28;20115;-67
2021/05/31 04:33:31;;;;;;;3.88;2.33;;;384.60;1817.60;;;;;;5093844;28;20073;-71
2021/05/31 04:35:57;;;;;;;4.85;2.30;;;384.60;1817.60;;;;;;5093820;28;20035;-66
2021/05/31 04:38:24;;;;;;;14.52;2.10;;;384.70;1817.60;;;;;;5094157;28;20020;-68
2021/05/31 04:40:50;;;;;;;8.98;2.70;;;384.70;1817.60;;;;;;5094099;28;20051;-66
2021/05/31 04:43:15;;;;;;;9.07;2.97;;;384.80;1817.60;;;;;;5094083;28;20090;-67
2021/05/31 04:45:41;;;;;;;4.93;2.10;;;384.80;1817.60;;;;;;5094044;28;20380;-67
2021/05/31 04:48:07;;;;;;;4.13;2.95;;;384.90;1817.60;;;;;;5094014;28;20023;-68
2021/05/31 04:50:33;;;;;;;5.47;2.53;;;384.90;1817.60;;;;;;5093963;28;20167;-67
2021/05/31 04:52:58;;;;;;;6.97;2.47;;;409.60;1843.20;;;;;;5093702;28;20016;-66
2021/05/31 04:55:24;;;;;;;2.30;1.65;;;409.60;1817.60;;;;;;5093304;28;20039;-66
2021/05/31 04:57:50;;;;;;;2.25;1.63;;;409.60;1817.60;;;;;;5093756;28;20055;-67
2021/05/31 05:00:16;;;;;;;3.15;2.15;;;409.60;1817.60;;;;;;5093861;28;20028;-69
2021/05/31 05:02:42;;;;;;;4.20;1.83;;;409.70;1817.60;;;;;;5093640;28;20016;-66
2021/05/31 05:05:09;;;;;;;2.67;1.50;;;409.70;1792.00;;;;;;5093756;28;20240;-67
2021/05/31 05:07:34;;;;;;;4.30;1.65;;;409.70;1792.00;;;;;;5093648;28;20028;-67
2021/05/31 05:10:00;;;;;;;6.10;2.10;;;409.70;1792.00;;;;;;5094189;28;20039;-66
2021/05/31 05:12:26;;;;;;;2.45;1.70;;;409.70;1792.00;;;;;;5093038;28;20032;-67
2021/05/31 05:14:52;;;;;;;20.25;2.45;;;409.70;1792.00;;;;;;5093084;28;20397;-67
2021/05/31 05:17:17;;;;;;;4.13;1.90;;;409.80;1792.00;;;;;;5092903;28;20026;-68
2021/05/31 05:19:43;;;;;;;7.47;2.10;;;409.80;1792.00;;;;;;5092811;28;20028;-66
2021/05/31 05:22:09;;;;;;;2.42;2.00;;;409.90;1792.00;;;;;;5092931;28;20023;-66
2021/05/31 05:24:35;;;;;;;3.20;1.95;;;409.90;1792.00;;;;;;5093044;28;20123;-67
2021/05/31 05:27:06;;;;;;;6.30;2.00;;;409.90;1792.00;;;;;;5092889;28;20028;-66
2021/05/31 05:29:32;;;;;;;4.68;1.88;;;409.90;1766.40;;;;;;5092858;28;20067;-66
2021/05/31 05:31:59;;;;;;;3.60;2.40;;;409.90;1766.40;;;;;;5090360;28;20036;-66
2021/05/31 05:34:25;;;;;;;5.13;2.67;;;409.90;1792.00;;;;;;5092950;28;20017;-66
2021/05/31 05:36:55;;;;;;;2.65;2.10;;;409.90;1792.00;;;;;;5093165;28;20038;-66
2021/05/31 05:49:43;;;;;;;3.22;2.33;;;410.20;1766.40;;;;;;5092426;28;20036;-66
2021/05/31 05:52:09;;;;;;;3.35;2.05;;;410.30;1766.40;;;;;;5092357;28;20420;-66
2021/05/31 05:54:35;;;;;;;5.45;2.63;;;410.30;1766.40;;;;;;5092684;28;20020;-66
2021/05/31 05:57:01;;;;;;;4.03;2.38;;;410.30;1766.40;;;;;;5092773;28;20524;-66
2021/05/31 05:59:27;;;;;;;3.25;2.20;;;410.40;1740.80;;;;;;5089911;28;20466;-66
2021/05/31 06:01:53;;;;;;;4.40;2.30;;;410.40;1766.40;;;;;;5092590;28;20115;-67
2021/05/31 06:04:19;;;;;;;3.58;2.38;;;410.40;1766.40;;;;;;5092267;28;20031;-66
2021/05/31 06:06:45;;;;;;;8.25;3.45;;;410.40;1766.40;;;;;;5095743;28;20020;-66
2021/05/31 06:09:17;;;;;;;6.57;3.40;;;410.40;1766.40;;;;;;5096316;28;20055;-66
2021/05/31 06:11:44;;;;;;;4.47;3.30;;;410.30;1766.40;;;;;;5094727;28;20036;-67
2021/05/31 06:14:10;;;;;;;4.35;3.15;;;410.30;1766.40;;;;;;5096098;28;20020;-66
2021/05/31 06:16:37;;;;;;;5.63;2.25;;;410.30;1766.40;;;;;;5095259;28;20024;-66
2021/05/31 06:19:04;;;;;;;5.13;2.13;;;410.30;1766.40;;;;;;5096059;28;20099;-67
2021/05/31 06:21:30;;;;;;;6.15;2.45;;;410.40;1766.40;;;;;;5095914;28;20031;-67
2021/05/31 06:23:56;;;;;;;2.47;1.95;;;410.40;1766.40;;;;;;5093518;28;20389;-68
2021/05/31 06:26:21;;;;;;;5.40;3.17;;;410.40;1792.00;;;;;;5094490;28;20537;-66
2021/05/31 06:28:47;;;;;;;3.45;2.45;;;410.40;1817.60;;;;;;5094562;28;20107;-66
2021/05/31 06:31:13;;;;;;;2.90;1.92;;;410.30;1817.60;;;;;;5094902;28;20043;-67
2021/05/31 06:33:39;;;;;;;4.45;2.20;;;410.30;1817.60;;;;;;5095057;28;20046;-67
2021/05/31 06:36:09;;;;;;;2.20;2.00;;;410.20;1843.20;;;;;;5094889;28;20488;-67
2021/05/31 06:38:36;;;;;;;3.42;2.55;;;410.20;1843.20;;;;;;5094568;28;20028;-68
2021/05/31 06:41:03;;;;;;;5.18;2.92;;;410.10;1843.20;;;;;;5091890;28;20024;-67
2021/05/31 06:43:30;;;;;;;2.78;2.15;;;410.20;1843.20;;;;;;5094333;28;20435;-67
2021/05/31 06:45:58;;;;;;;4.70;2.88;;;410.10;1868.80;;;;;;5094498;28;20050;-67
2021/05/31 06:48:24;;;;;;;2.97;2.33;;;410.10;1868.80;;;;;;5094499;28;20032;-67
2021/05/31 06:50:49;;;;;;;2.20;1.98;;;410.10;1868.80;;;;;;5091771;28;20030;-67
2021/05/31 06:53:16;;;;;;;10.05;3.42;;;410.10;1894.40;;;;;;5094614;28;20055;-67
2021/05/31 06:55:43;;;;;;;3.00;2.63;;;410.10;1868.80;;;;;;5094555;28;20081;-67
2021/05/31 06:58:09;;;;;;;2.90;2.58;;;410.00;1894.40;;;;;;5091807;28;20015;-68
2021/05/31 07:00:35;;;;;;;3.47;2.22;;;410.00;1894.40;;;;;;5095953;28;20024;-67
2021/05/31 07:03:01;;;;;;;3.17;2.22;;;410.00;1868.80;;;;;;5095806;28;20055;-67
2021/05/31 07:05:27;;;;;;;4.00;2.65;;;410.00;1894.40;;;;;;5095950;28;20032;-68
2021/05/31 07:07:53;;;;;;;3.40;2.42;;;410.00;1894.40;;;;;;5095634;28;20020;-68
2021/05/31 07:10:23;;;;;;;2.58;2.17;;;410.10;1894.40;;;;;;5095503;28;20032;-67
2021/05/31 07:12:49;;;;;;;3.60;1.77;;;410.10;1894.40;;;;;;5095477;28;20028;-68
2021/05/31 07:15:15;;;;;;;2.00;1.80;;;410.10;1868.80;;;;;;5095462;28;20030;-68
2021/05/31 07:17:41;;;;;;;1.67;1.58;;;410.10;1894.40;;;;;;5094444;28;20031;-68
2021/05/31 07:20:12;;;;;;;1.70;1.58;;;410.20;1868.80;;;;;;5095492;28;20048;-68
2021/05/31 07:22:39;;;;;;;2.53;1.95;;;410.20;1868.80;;;;;;5095312;28;20044;-68
2021/05/31 07:25:07;;;;;;;2.53;1.65;;;410.30;1868.80;;;;;;5095214;28;20024;-68
2021/05/31 07:27:33;;;;;;;1.90;1.73;;;410.30;1843.20;;;;;;5095302;28;20016;-68
2021/05/31 07:30:01;;;;;;;2.10;1.88;;;410.30;1868.80;;;;;;5095135;28;20052;-68
2021/05/31 07:32:27;;;;;;;2.17;1.77;;;410.30;1868.80;;;;;;5095098;28;20035;-68
2021/05/31 07:34:52;;;;;;;2.10;1.90;;;410.30;1868.80;;;;;;5094725;28;20020;-68
2021/05/31 07:37:18;;;;;;;2.80;2.10;;;410.30;1868.80;;;;;;5095046;28;20382;-68
2021/05/31 07:39:44;;;;;;;2.17;1.83;;;410.30;1843.20;;;;;;5095201;28;20465;-68
2021/05/31 07:42:10;;;;;;;1.80;1.70;;;410.20;1868.80;;;;;;5095049;28;20077;-68
2021/05/31 07:44:35;;;;;;;2.47;1.70;;;410.20;1843.20;;;;;;5095093;28;20047;-68
2021/05/31 07:47:02;;;;;;;2.25;1.73;;;410.30;1868.80;;;;;;5095002;28;20446;-68
2021/05/31 07:49:28;;;;;;;1.40;1.30;;;410.30;1868.80;;;;;;5094734;28;20028;-67
2021/05/31 07:51:55;;;;;;;1.40;1.20;;;410.30;1868.80;;;;;;5093564;28;20024;-67
2021/05/31 07:54:24;;;;;;;1.63;1.30;;;410.30;1868.80;;;;;;5093510;28;20032;-67
2021/05/31 07:56:50;;;;;;;2.33;1.92;;;410.30;1868.80;;;;;;5094781;28;20381;-68
2021/05/31 07:59:17;;;;;;;2.05;1.85;;;410.30;1894.40;;;;;;5094383;28;20101;-67
2021/05/31 08:01:43;;;;;;;2.20;1.80;;;410.40;1868.80;;;;;;5093681;28;20492;-67
2021/05/31 08:04:08;;;;;;;4.05;2.00;;;410.40;1868.80;;;;;;5094429;28;20028;-68
2021/05/31 08:06:35;;;;;;;2.90;2.20;;;410.40;1868.80;;;;;;5094823;28;20020;-68
2021/05/31 08:09:02;;;;;;;2.15;1.90;;;410.40;1894.40;;;;;;5094462;28;20055;-68
2021/05/31 08:11:28;;;;;;;2.67;2.28;;;410.40;1894.40;;;;;;5094536;28;20378;-68
2021/05/31 08:13:54;;;;;;;2.30;2.05;;;410.40;1894.40;;;;;;5094162;28;20028;-68
2021/05/31 08:16:20;;;;;;;2.45;2.05;;;410.40;1894.40;;;;;;5094205;28;20032;-68
2021/05/31 08:18:46;;;;;;;2.38;2.17;;;410.30;1894.40;;;;;;5094444;28;20034;-68
2021/05/31 08:21:12;;;;;;;5.07;3.47;;;410.30;1894.40;;;;;;5094222;28;20085;-68
2021/05/31 08:23:38;;;;;;;4.78;3.97;;;410.30;1894.40;;;;;;5094166;28;20060;-68
2021/05/31 08:26:05;;;;;;;3.53;2.67;;;410.30;1920.00;;;;;;5094273;28;20072;-68
2021/05/31 08:28:31;;;;;;;2.67;2.25;;;410.30;1894.40;;;;;;5093874;28;20073;-67
2021/05/31 08:30:56;;;;;;;2.78;2.50;;;410.30;1894.40;;;;;;5093696;28;20107;-68
2021/05/31 08:33:22;;;;;;;3.00;2.25;;;410.30;1894.40;;;;;;5094190;28;20020;-67
2021/05/31 08:35:48;;;;;;;4.25;1.92;;;410.20;1894.40;;;;;;5094192;28;20028;-67
2021/05/31 08:38:15;;;;;;;2.20;1.98;;;410.30;1894.40;;;;;;5093958;28;20426;-68
2021/05/31 08:40:41;;;;;;;2.20;1.98;;;410.30;1894.40;;;;;;5094173;28;20032;-68
2021/05/31 08:43:07;;;;;;;3.60;2.85;;;410.30;1868.80;;;;;;5093013;28;20073;-67
2021/05/31 08:45:37;;;;;;;6.30;4.38;;;410.50;1843.20;;;;;;5092825;28;20016;-68
2021/05/31 08:48:03;;;;;;;4.38;3.17;;;435.30;1868.80;;;;;;5093603;28;20024;-67
2021/05/31 08:50:31;;;;;;;5.03;2.20;;;435.30;1843.20;;;;;;5092849;28;20060;-67
2021/05/31 08:52:57;;;;;;;2.42;2.00;;;435.40;1817.60;;;;;;5090767;28;20074;-67
2021/05/31 08:55:46;;;;;;;2.83;2.55;;;435.60;1792.00;;;;;;5093365;28;20095;-69
2021/05/31 08:58:12;;;;;;;4.72;1.83;;;435.70;1792.00;;;;;;5010160;28;20051;-66
2021/05/31 09:00:38;;;;;;;2.50;2.08;;;435.90;1792.00;;;;;;5010027;28;20034;-67
2021/05/31 09:03:06;;;;;;;8.05;7.25;;;435.90;1766.40;;;;;;5009912;28;20117;-67
2021/05/31 09:05:32;;;;;;;5.38;4.43;;;436.00;1766.40;;;;;;5010184;28;20022;-67
2021/05/31 09:08:03;;;;;;;4.63;4.13;;;436.00;1740.80;;;;;;5009776;28;20030;-67
2021/05/31 09:10:34;;;;;;;3.40;2.97;;;436.10;1740.80;;;;;;5009954;28;20520;-67
2021/05/31 09:13:01;;;;;;;2.17;1.80;;;436.00;1715.20;;;;;;5010162;28;20033;-67
2021/05/31 09:15:26;;;;;;;2.22;2.00;;;436.00;1715.20;;;;;;5010043;28;20080;-66
2021/05/31 09:17:52;;;;;;;1.70;1.40;;;435.90;1715.20;;;;;;5010188;28;20018;-67
2021/05/31 09:20:19;;;;;;;3.90;1.70;;;436.00;1689.60;;;;;;5010024;28;20030;-67
2021/05/31 09:22:50;;;;;;;3.10;1.60;;;436.10;1689.60;;;;;;5010005;28;20044;-68
2021/05/31 09:25:32;;;;;;;2.45;1.42;;;460.80;1715.20;;;;;;5010020;28;20041;-67
2021/05/31 09:28:01;;;;;;;1.45;1.23;;;460.90;1715.20;;;;;;5009851;28;20026;-67
2021/05/31 09:30:41;;;;;;;1.15;1.05;;;461.00;1689.60;;;;;;5010049;28;20152;-67
2021/05/31 09:33:10;;;;;;;1.40;1.15;;;461.00;1664.00;;;;;;5008178;28;20037;-67
2021/05/31 09:35:43;;;;;;;1.38;0.90;;;461.00;1638.40;;;;;;5061544;28;20024;-68
2021/05/31 09:38:09;;;;;;;1.55;1.15;;;460.90;1664.00;;;;;;5092272;28;20056;-70
2021/05/31 09:40:35;;;;;;;2.80;1.20;;;460.90;1664.00;;;;;;5092773;28;20024;-67
2021/05/31 09:43:04;;;;;;;1.42;1.33;;;460.80;1664.00;;;;;;5095972;28;20028;-67
2021/05/31 09:45:30;;;;;;;4.60;1.15;;;460.80;1638.40;;;;;;5095726;28;20027;-70
2021/05/31 09:48:03;;;;;;;1.10;1.00;;;460.90;1638.40;;;;;;5093131;28;20028;-66
2021/05/31 09:50:32;;;;;;;1.10;1.00;;;460.90;1638.40;;;;;;5095883;28;20039;-67
2021/05/31 09:53:06;;;;;;;1.60;1.05;;;460.90;1638.40;;;;;;5096588;28;20028;-67
2021/05/31 09:55:34;;;;;;;3.83;1.50;;;461.10;1638.40;;;;;;5096549;28;20020;-67
2021/05/31 09:58:00;;;;;;;2.72;1.75;;;461.30;1612.80;;;;;;5096987;28;20036;-67
2021/05/31 10:00:28;;;;;;;2.65;2.45;;;486.50;1561.60;;;;;;5096922;28;20085;-67
2021/05/31 10:05:38;;;;;;;2.13;1.27;;;512.10;1459.20;;;;;;5096794;28;20027;-67
2021/05/31 10:10:32;;;;;;;5.63;1.70;;;512.60;1433.60;;;;;;5096776;28;20040;-67
2021/05/31 10:12:59;;;;;;;2.63;2.00;;;512.70;1408.00;;;;;;5096604;28;20031;-68
2021/05/31 10:15:30;;;;;;;5.13;2.63;;;512.50;1408.00;;;;;;5096637;28;20117;-68
2021/05/31 10:17:58;;;;;;;2.28;2.08;;;512.40;1408.00;;;;;;5096633;28;20024;-68
2021/05/31 10:20:27;;;;;;;2.58;2.28;;;512.30;1433.60;;;;;;5095060;28;20016;-67
2021/05/31 10:22:54;;;;;;;4.25;2.60;;;512.20;1408.00;;;;;;5094726;28;20074;-66
2021/05/31 10:25:23;;;;;;;2.20;2.00;;;512.30;1433.60;;;;;;5094971;28;20020;-70
2021/05/31 10:28:13;;;;;;;3.05;2.20;;;512.30;1433.60;;;;;;5093260;28;20039;-66
2021/05/31 10:30:43;;;;;;;4.78;1.92;;;512.10;1433.60;;;;;;5093196;28;20032;-66
2021/05/31 10:33:16;;;;;;;2.30;2.10;;;512.00;1433.60;;;;;;5095052;28;20397;-66
2021/05/31 10:35:42;;;;;;;2.42;2.22;;;487.30;1459.20;;;;;;5095723;28;20111;-67
2021/05/31 10:38:18;;;;;;;6.05;2.35;;;487.20;1484.80;;;;;;5095865;28;20031;-67
2021/05/31 10:40:47;;;;;;;3.05;1.98;;;487.20;1484.80;;;;;;5096218;28;20024;-67
2021/05/31 10:43:19;;;;;;;2.00;1.80;;;512.00;1484.80;;;;;;5096005;28;20115;-67
2021/05/31 10:45:45;;;;;;;1.98;1.77;;;512.10;1459.20;;;;;;5096323;28;20024;-67
2021/05/31 10:48:21;;;;;;;5.63;2.10;;;512.10;1459.20;;;;;;5096051;28;20031;-67
2021/05/31 10:50:54;;;;;;;3.53;2.65;;;512.10;1459.20;;;;;;5096015;28;20043;-68
2021/05/31 10:53:26;;;;;;;9.48;2.22;;;512.10;1484.80;;;;;;5095022;28;20024;-67
2021/05/31 10:56:03;;;;;;;3.75;2.20;;;512.00;1484.80;;;;;;5095743;28;20035;-67
2021/05/31 10:58:34;;;;;;;3.65;2.20;;;487.30;1484.80;;;;;;5095924;28;20028;-68
2021/05/31 11:01:08;;;;;;;2.10;1.90;;;487.20;1484.80;;;;;;5095791;28;20030;-67
2021/05/31 11:03:53;;;;;;;3.72;1.95;;;487.20;1484.80;;;;;;5095740;28;20054;-67
2021/05/31 11:06:24;;;;;;;3.03;2.25;;;487.20;1510.40;;;;;;5095725;28;20035;-68
2021/05/31 11:09:13;;;;;;;3.60;2.05;;;512.00;1484.80;;;;;;5094491;28;20088;-66
2021/05/31 11:11:50;;;;;;;2.38;1.65;;;512.10;1484.80;;;;;;5092409;28;20050;-68
2021/05/31 11:14:31;;;;;;;3.90;1.80;;;512.20;1459.20;;;;;;5095505;28;20033;-68
2021/05/31 11:17:02;;;;;;;1.70;1.60;;;512.30;1459.20;;;;;;5095651;28;20025;-68
2021/05/31 11:19:35;;;;;;;2.05;1.70;;;512.30;1484.80;;;;;;5093425;28;20032;-68
2021/05/31 11:22:24;;;;;;;2.30;1.80;;;512.30;1459.20;;;;;;5093853;28;20016;-68
2021/05/31 11:25:01;;;;;;;2.60;1.95;;;512.20;1459.20;;;;;;5092710;28;20027;-70
2021/05/31 11:27:36;;;;;;;2.45;1.40;;;512.20;1484.80;;;;;;5093980;28;20023;-69
2021/05/31 11:30:08;;;;;;;2.00;1.80;;;512.20;1484.80;;;;;;5093723;28;20040;-67
2021/05/31 11:32:35;;;;;;;1.60;1.50;;;512.60;1459.20;;;;;;5091720;28;20069;-66
2021/05/31 11:35:07;;;;;;;3.90;1.75;;;512.90;1459.20;;;;;;5093616;28;20028;-68
2021/05/31 11:37:33;;;;;;;3.80;1.48;;;537.60;1459.20;;;;;;5094714;28;20115;-69
2021/05/31 11:40:01;;;;;;;1.30;1.13;;;512.90;1408.00;;;;;;5094874;28;20028;-71
2021/05/31 11:42:27;;;;;;;1.58;1.23;;;537.60;1408.00;;;;;;5094790;28;20077;-67
2021/05/31 11:45:00;;;;;;;1.55;1.45;;;537.70;1382.40;;;;;;5094990;28;20016;-67
2021/05/31 11:47:28;;;;;;;2.20;1.50;;;537.70;1382.40;;;;;;5094269;28;20024;-67
2021/05/31 11:49:54;;;;;;;3.50;1.50;;;537.60;1408.00;;;;;;5094605;28;20362;-68
2021/05/31 11:52:25;;;;;;;6.40;1.70;;;537.60;1408.00;;;;;;5093609;28;20031;-67
2021/05/31 11:54:51;;;;;;;2.92;1.10;;;537.60;1408.00;;;;;;5093644;28;20024;-67
2021/05/31 11:57:21;;;;;;;4.55;1.60;;;537.60;1408.00;;;;;;5093290;28;20165;-67
2021/05/31 11:59:50;;;;;;;8.18;1.60;;;537.80;1408.00;;;;;;5094478;28;20132;-67
2021/05/31 12:02:23;;;;;;;3.85;1.27;;;538.00;1408.00;;;;;;5093607;28;20031;-67
2021/05/31 12:04:51;;;;;;;3.10;0.90;;;538.00;1356.80;;;;;;5094165;28;20028;-67
2021/05/31 12:07:20;;;;;;;2.28;1.10;;;537.90;1356.80;;;;;;5092248;28;20394;-66
2021/05/31 12:09:46;;;;;;;1.30;1.15;;;537.70;1382.40;;;;;;5092362;28;20132;-67
2021/05/31 12:12:15;;;;;;;1.27;0.95;;;512.80;1408.00;;;;;;5092971;28;20373;-67
2021/05/31 12:14:59;;;;;;;1.83;1.20;;;512.50;1459.20;;;;;;5090435;28;20033;-66
2021/05/31 12:17:27;;;;;;;3.13;1.27;;;512.30;1459.20;;;;;;5090993;28;20541;-68
2021/05/31 12:19:54;;;;;;;5.93;1.92;;;512.00;1510.40;;;;;;5092914;28;20036;-67
2021/05/31 12:22:25;;;;;;;5.78;2.38;;;487.20;1587.20;;;;;;5092635;28;20358;-69
2021/05/31 12:24:56;;;;;;;5.18;2.13;;;486.90;1664.00;;;;;;5092782;28;20106;-67
2021/05/31 12:27:28;;;;;;;3.10;2.10;;;486.60;1715.20;;;;;;5092692;28;20073;-66
2021/05/31 12:29:54;;;;;;;5.50;2.75;;;486.50;1740.80;;;;;;5089941;28;20389;-69
2021/05/31 12:32:25;;;;;;;3.03;1.90;;;486.50;1740.80;;;;;;5092575;28;20492;-70
2021/05/31 12:34:51;;;;;;;3.45;2.33;;;486.50;1766.40;;;;;;5092591;28;20027;-65
2021/05/31 12:37:22;;;;;;;4.10;2.60;;;486.60;1766.40;;;;;;5092510;28;20028;-67
2021/05/31 12:39:50;;;;;;;2.42;1.95;;;486.70;1792.00;;;;;;5092555;28;20513;-69
2021/05/31 12:42:30;;;;;;;1.83;1.70;;;486.80;1766.40;;;;;;5089899;28;20077;-66
2021/05/31 12:45:08;;;;;;;2.00;1.75;;;486.80;1766.40;;;;;;5090914;28;20077;-66